Time;durP1;ratioP1;P1;durP2;ratioP2;P2;SDS_P1;SDS_P2;PMS_P1;PMS_P2;Temp;Humidity;BMP_temperature;BMP_pressure;BME280_temperature;BME280_humidity;BME280_pressure;Samples;Min_cycle;Max_cycle;Signal;HPM_P1;HPM_P2
2024/04/17 00:01:41;;;;;;;0.30;0.30;;;9.30;99.90;;;;;;5511946;26;20224;-74
2024/04/17 00:04:06;;;;;;;0.30;0.20;;;9.30;99.90;;;;;;5513115;25;20286;-73
2024/04/17 00:06:32;;;;;;;0.50;0.50;;;9.30;99.90;;;;;;5512012;26;20223;-77
2024/04/17 00:08:57;;;;;;;0.30;0.20;;;9.40;99.90;;;;;;5504924;26;20253;-76
2024/04/17 00:11:23;;;;;;;0.30;0.20;;;9.40;99.90;;;;;;5476596;26;20278;-73
2024/04/17 00:13:49;;;;;;;0.30;0.30;;;9.40;99.90;;;;;;5499104;26;20582;-73
2024/04/17 00:16:15;;;;;;;0.30;0.20;;;9.40;99.90;;;;;;5512905;25;21283;-76
2024/04/17 00:18:41;;;;;;;0.30;0.20;;;9.40;99.90;;;;;;5511588;26;20570;-73
2024/04/17 00:21:06;;;;;;;0.30;0.20;;;9.40;99.90;;;;;;5515097;25;20208;-74
2024/04/17 00:23:32;;;;;;;0.60;0.60;;;9.40;99.90;;;;;;5513091;26;20244;-74
2024/04/17 00:25:57;;;;;;;0.30;0.30;;;9.40;99.90;;;;;;5484325;26;20213;-75
2024/04/17 00:28:24;;;;;;;0.30;0.20;;;9.40;99.90;;;;;;5500106;26;20315;-73
2024/04/17 00:30:50;;;;;;;0.30;0.20;;;9.40;99.90;;;;;;5521114;25;20215;-73
2024/04/17 00:33:16;;;;;;;0.30;0.20;;;9.40;99.90;;;;;;5512882;26;20624;-73
2024/04/17 00:35:42;;;;;;;0.30;0.20;;;9.40;99.90;;;;;;5484385;26;20213;-73
2024/04/17 00:38:07;;;;;;;0.30;0.30;;;9.40;99.90;;;;;;5495439;26;20343;-76
2024/04/17 00:40:35;;;;;;;0.30;0.20;;;9.40;99.90;;;;;;5519439;26;20508;-76
2024/04/17 00:43:01;;;;;;;0.30;0.20;;;9.50;99.90;;;;;;5518936;26;20239;-77
2024/04/17 00:45:33;;;;;;;0.30;0.20;;;9.40;99.90;;;;;;5520960;25;20753;-73
2024/04/17 00:48:00;;;;;;;0.30;0.20;;;9.40;99.90;;;;;;5518544;26;20464;-76
2024/04/17 00:50:26;;;;;;;0.30;0.20;;;9.40;99.90;;;;;;5520838;26;20245;-73
2024/04/17 00:52:53;;;;;;;0.30;0.20;;;9.30;99.90;;;;;;5518458;26;20235;-75
2024/04/17 00:55:19;;;;;;;0.30;0.30;;;9.30;99.90;;;;;;5520568;26;20211;-76
2024/04/17 00:57:47;;;;;;;0.30;0.20;;;9.30;99.90;;;;;;5520037;25;20282;-74
2024/04/17 01:00:13;;;;;;;0.30;0.20;;;9.30;99.90;;;;;;5520898;26;20219;-73
2024/04/17 01:02:39;;;;;;;0.30;0.20;;;9.30;99.90;;;;;;5519792;26;20244;-76
2024/04/17 01:05:05;;;;;;;0.30;0.20;;;9.30;99.90;;;;;;5519206;26;20319;-76
2024/04/17 01:07:31;;;;;;;0.30;0.20;;;9.30;99.90;;;;;;5517741;26;20327;-77
2024/04/17 01:09:57;;;;;;;0.30;0.30;;;9.20;99.90;;;;;;5518658;26;20220;-73
2024/04/17 01:12:23;;;;;;;0.30;0.20;;;9.20;99.90;;;;;;5519617;25;20705;-73
2024/04/17 01:14:48;;;;;;;0.90;0.87;;;9.20;99.90;;;;;;5520608;26;20228;-73
2024/04/17 01:17:15;;;;;;;0.40;0.40;;;9.30;99.90;;;;;;5518172;26;20628;-73
2024/04/17 01:19:41;;;;;;;0.30;0.20;;;9.30;99.90;;;;;;5520227;25;20240;-73
2024/04/17 01:22:07;;;;;;;0.30;0.20;;;9.30;99.90;;;;;;5520166;26;20641;-73
2024/04/17 01:24:32;;;;;;;1.47;0.93;;;9.30;99.90;;;;;;5511944;26;20872;-78
2024/04/17 01:26:58;;;;;;;0.47;0.47;;;9.30;99.90;;;;;;5483153;26;20569;-73
2024/04/17 01:29:23;;;;;;;0.30;0.20;;;9.30;99.90;;;;;;5514248;26;20851;-76
2024/04/17 01:31:49;;;;;;;0.30;0.20;;;9.30;99.90;;;;;;5520180;25;20216;-74
2024/04/17 01:34:15;;;;;;;0.93;0.40;;;9.30;99.90;;;;;;5506423;26;20622;-76
2024/04/17 01:36:40;;;;;;;0.40;0.40;;;9.30;99.90;;;;;;5476828;26;20236;-76
2024/04/17 01:39:06;;;;;;;0.30;0.20;;;9.30;99.90;;;;;;5506300;26;20236;-73
2024/04/17 01:41:32;;;;;;;1.63;1.53;;;9.20;99.90;;;;;;5515546;26;20224;-74
2024/04/17 01:43:57;;;;;;;1.23;1.13;;;9.20;99.90;;;;;;5507557;26;20351;-76
2024/04/17 01:46:23;;;;;;;0.60;0.60;;;9.20;99.90;;;;;;5477857;26;20794;-76
2024/04/17 01:48:49;;;;;;;0.30;0.20;;;9.20;99.90;;;;;;5493360;26;20865;-76
2024/04/17 01:51:14;;;;;;;0.30;0.20;;;9.20;99.90;;;;;;5477358;26;20267;-75
2024/04/17 01:53:40;;;;;;;0.30;0.20;;;9.20;99.90;;;;;;5498889;26;20251;-73
2024/04/17 01:56:06;;;;;;;0.30;0.20;;;9.20;99.90;;;;;;5514111;26;20219;-73
2024/04/17 01:58:31;;;;;;;0.30;0.20;;;9.20;99.90;;;;;;5515011;25;20290;-73
2024/04/17 02:01:03;;;;;;;0.30;0.20;;;9.20;99.90;;;;;;5515964;25;20216;-73
2024/04/17 02:03:29;;;;;;;0.30;0.20;;;9.20;99.90;;;;;;5513333;26;20557;-73
2024/04/17 02:05:54;;;;;;;0.30;0.30;;;9.20;99.90;;;;;;5513773;26;20227;-73
2024/04/17 02:08:20;;;;;;;0.30;0.20;;;9.20;99.90;;;;;;5512999;26;20290;-76
2024/04/17 02:10:46;;;;;;;0.30;0.20;;;9.10;99.90;;;;;;5513443;26;20227;-76
2024/04/17 02:13:11;;;;;;;1.27;1.17;;;9.20;99.90;;;;;;5513135;26;20708;-76
2024/04/17 02:15:37;;;;;;;0.40;0.40;;;9.10;99.90;;;;;;5515267;25;20227;-73
2024/04/17 02:18:03;;;;;;;0.30;0.20;;;9.10;99.90;;;;;;5515153;25;20228;-76
2024/04/17 02:20:28;;;;;;;0.30;0.20;;;9.10;99.90;;;;;;5515508;25;20685;-76
2024/04/17 02:22:54;;;;;;;0.30;0.20;;;9.10;99.90;;;;;;5514568;25;20231;-72
2024/04/17 02:25:19;;;;;;;0.40;0.40;;;9.10;99.90;;;;;;5515513;26;20223;-74
2024/04/17 02:27:45;;;;;;;0.30;0.20;;;9.10;99.90;;;;;;5514809;25;20616;-73
2024/04/17 02:30:11;;;;;;;0.30;0.20;;;9.20;99.90;;;;;;5515609;25;20237;-73
2024/04/17 02:32:36;;;;;;;0.30;0.20;;;9.20;99.90;;;;;;5512767;26;20270;-73
2024/04/17 02:35:02;;;;;;;0.30;0.20;;;9.10;99.90;;;;;;5513884;26;20224;-73
2024/04/17 02:37:28;;;;;;;0.30;0.20;;;9.10;99.90;;;;;;5514358;26;20231;-74
2024/04/17 02:39:54;;;;;;;0.63;0.63;;;9.00;99.90;;;;;;5515145;26;20323;-76
2024/04/17 02:42:19;;;;;;;0.30;0.20;;;9.00;99.90;;;;;;5514668;25;20320;-77
2024/04/17 02:44:45;;;;;;;0.30;0.30;;;8.90;99.90;;;;;;5512714;26;20235;-77
2024/04/17 02:47:11;;;;;;;0.77;0.73;;;8.90;99.90;;;;;;5515107;25;20639;-73
2024/04/17 02:49:37;;;;;;;0.50;0.40;;;8.90;99.90;;;;;;5514295;26;20528;-73
2024/04/17 02:52:03;;;;;;;0.30;0.20;;;8.80;99.90;;;;;;5514742;25;20215;-73
2024/04/17 02:54:28;;;;;;;0.30;0.20;;;8.90;99.90;;;;;;5514338;25;20845;-73
2024/04/17 02:56:54;;;;;;;0.43;0.40;;;8.90;99.90;;;;;;5514663;26;20876;-76
2024/04/17 02:59:20;;;;;;;0.30;0.20;;;9.00;99.90;;;;;;5514409;25;20244;-76
2024/04/17 03:01:45;;;;;;;0.30;0.20;;;9.20;99.90;;;;;;5514605;26;20263;-75
2024/04/17 03:04:11;;;;;;;0.30;0.20;;;9.20;99.90;;;;;;5514312;25;20239;-76
2024/04/17 03:06:36;;;;;;;0.30;0.20;;;9.30;99.90;;;;;;5514509;25;20262;-73
2024/04/17 03:09:02;;;;;;;0.30;0.20;;;9.40;99.90;;;;;;5514619;26;20239;-74
2024/04/17 03:11:28;;;;;;;0.30;0.30;;;9.40;99.90;;;;;;5514634;26;20283;-76
2024/04/17 03:13:53;;;;;;;0.30;0.20;;;9.40;99.90;;;;;;5506593;26;20252;-76
2024/04/17 03:16:19;;;;;;;0.30;0.20;;;9.40;99.90;;;;;;5475855;26;20410;-73
2024/04/17 03:18:45;;;;;;;0.30;0.30;;;9.30;99.90;;;;;;5497750;26;20256;-73
2024/04/17 03:21:10;;;;;;;0.50;0.50;;;9.20;99.90;;;;;;5513178;26;20246;-76
2024/04/17 03:23:36;;;;;;;0.30;0.30;;;9.20;99.90;;;;;;5511608;26;20474;-73
2024/04/17 03:26:02;;;;;;;0.30;0.20;;;9.10;99.90;;;;;;5512353;26;20571;-74
2024/04/17 03:28:28;;;;;;;0.30;0.20;;;9.10;99.90;;;;;;5513700;25;20247;-75
2024/04/17 03:30:54;;;;;;;0.60;0.60;;;9.20;99.90;;;;;;5512257;26;20480;-74
2024/04/17 03:33:20;;;;;;;0.30;0.20;;;9.20;99.90;;;;;;5513355;25;20477;-73
2024/04/17 03:35:57;;;;;;;0.30;0.20;;;9.20;99.90;;;;;;5513724;25;20416;-76
2024/04/17 03:38:23;;;;;;;0.30;0.20;;;9.30;99.90;;;;;;5513755;25;20287;-75
2024/04/17 03:40:48;;;;;;;0.30;0.20;;;9.30;99.90;;;;;;5514039;25;20697;-73
2024/04/17 03:43:14;;;;;;;0.30;0.30;;;9.40;99.90;;;;;;5512113;25;20239;-76
2024/04/17 03:45:40;;;;;;;0.30;0.20;;;9.50;99.90;;;;;;5513314;25;20612;-76
2024/04/17 03:48:06;;;;;;;0.40;0.40;;;9.50;99.90;;;;;;5511025;26;20409;-76
2024/04/17 03:50:31;;;;;;;0.30;0.20;;;9.60;99.90;;;;;;5513589;25;20254;-76
2024/04/17 03:52:57;;;;;;;0.30;0.20;;;9.60;99.90;;;;;;5512719;25;20231;-73
2024/04/17 03:55:23;;;;;;;0.30;0.20;;;9.70;99.90;;;;;;5512012;25;20237;-76
2024/04/17 03:57:49;;;;;;;0.30;0.20;;;9.70;99.90;;;;;;5503731;26;20244;-73
2024/04/17 04:00:15;;;;;;;0.30;0.20;;;9.70;99.90;;;;;;5476500;26;20213;-73
2024/04/17 04:02:41;;;;;;;0.30;0.20;;;9.80;99.90;;;;;;5479240;26;20748;-73
2024/04/17 04:05:06;;;;;;;0.30;0.20;;;9.80;99.90;;;;;;5513765;25;20267;-74
2024/04/17 04:07:32;;;;;;;0.30;0.20;;;9.80;99.90;;;;;;5512542;25;20261;-73
2024/04/17 04:09:58;;;;;;;0.30;0.20;;;9.80;99.90;;;;;;5511829;26;20239;-76
2024/04/17 04:12:24;;;;;;;1.02;1.02;;;9.90;99.90;;;;;;5511270;26;20266;-76
2024/04/17 04:14:50;;;;;;;0.30;0.20;;;9.90;99.90;;;;;;5511250;26;20732;-73
2024/04/17 04:17:15;;;;;;;1.70;1.70;;;9.80;99.90;;;;;;5493035;26;20235;-75
2024/04/17 04:19:42;;;;;;;0.30;0.20;;;9.80;99.90;;;;;;5511836;26;20709;-76
2024/04/17 04:22:08;;;;;;;0.30;0.20;;;9.80;99.90;;;;;;5481171;26;20217;-74
2024/04/17 04:24:34;;;;;;;0.30;0.20;;;9.80;99.90;;;;;;5503955;26;20699;-73
2024/04/17 04:26:59;;;;;;;0.30;0.20;;;9.80;99.90;;;;;;5510257;26;20220;-76
2024/04/17 04:29:25;;;;;;;0.53;0.53;;;9.80;99.90;;;;;;5538951;25;20566;-75
2024/04/17 04:31:51;;;;;;;0.30;0.20;;;9.80;99.90;;;;;;5475179;26;20544;-78
2024/04/17 04:34:16;;;;;;;0.40;0.37;;;9.70;99.90;;;;;;5507664;26;20290;-75
2024/04/17 04:36:42;;;;;;;0.30;0.20;;;9.80;99.90;;;;;;5487015;25;20644;-78
2024/04/17 04:39:07;;;;;;;0.30;0.20;;;9.70;99.90;;;;;;5497164;25;20284;-75
2024/04/17 04:41:33;;;;;;;0.30;0.20;;;9.70;99.90;;;;;;5494394;26;20231;-77
2024/04/17 04:43:59;;;;;;;0.30;0.20;;;9.80;99.90;;;;;;5495472;26;20722;-75
2024/04/17 04:46:25;;;;;;;0.60;0.60;;;9.80;99.90;;;;;;5503457;26;20216;-75
2024/04/17 04:48:51;;;;;;;0.30;0.20;;;9.80;99.90;;;;;;5501383;26;20391;-73
2024/04/17 04:51:16;;;;;;;0.30;0.20;;;9.80;99.90;;;;;;5506150;26;20212;-73
2024/04/17 04:53:42;;;;;;;0.30;0.20;;;9.70;99.90;;;;;;5510651;25;20286;-73
2024/04/17 04:56:08;;;;;;;0.30;0.20;;;9.70;99.90;;;;;;5476659;25;20579;-76
2024/04/17 04:58:34;;;;;;;0.40;0.40;;;9.70;99.90;;;;;;5481679;26;20808;-73
2024/04/17 05:01:00;;;;;;;0.30;0.20;;;9.80;99.90;;;;;;5474886;26;20451;-73
2024/04/17 05:03:26;;;;;;;0.30;0.20;;;9.80;99.90;;;;;;5490554;26;20331;-73
2024/04/17 05:05:51;;;;;;;2.10;1.90;;;9.80;99.90;;;;;;5500339;26;20221;-76
2024/04/17 05:08:18;;;;;;;0.30;0.30;;;9.80;99.90;;;;;;5503379;26;20529;-75
2024/04/17 05:10:43;;;;;;;1.25;1.25;;;9.90;99.90;;;;;;5499247;26;20446;-73
2024/04/17 05:13:09;;;;;;;0.30;0.20;;;9.90;99.90;;;;;;5491936;26;20240;-73
2024/04/17 05:15:34;;;;;;;0.30;0.20;;;10.00;99.90;;;;;;5484661;26;20236;-76
2024/04/17 05:18:00;;;;;;;0.30;0.20;;;10.00;99.90;;;;;;5491624;25;20227;-76
2024/04/17 05:20:26;;;;;;;0.30;0.20;;;9.90;99.90;;;;;;5506692;26;20295;-73
2024/04/17 05:22:52;;;;;;;0.30;0.20;;;9.80;99.90;;;;;;5488739;26;20245;-76
2024/04/17 05:25:19;;;;;;;0.30;0.20;;;9.70;99.90;;;;;;5484356;26;20454;-76
2024/04/17 05:27:45;;;;;;;0.30;0.20;;;9.60;99.90;;;;;;5507646;26;20432;-75
2024/04/17 05:30:11;;;;;;;0.30;0.20;;;9.50;99.90;;;;;;5500315;25;20807;-76
2024/04/17 05:32:37;;;;;;;0.30;0.20;;;9.40;99.90;;;;;;5496089;26;20513;-73
2024/04/17 05:35:04;;;;;;;0.30;0.20;;;9.40;99.90;;;;;;5487595;26;20584;-73
2024/04/17 05:37:30;;;;;;;0.30;0.20;;;9.30;99.90;;;;;;5498144;26;20512;-76
2024/04/17 05:39:56;;;;;;;0.30;0.20;;;9.20;99.90;;;;;;5485513;26;20232;-73
2024/04/17 05:42:22;;;;;;;0.30;0.30;;;9.20;99.90;;;;;;5493409;26;20260;-77
2024/04/17 05:44:48;;;;;;;0.30;0.20;;;9.10;99.90;;;;;;5493807;26;20496;-73
2024/04/17 05:47:14;;;;;;;0.30;0.20;;;9.00;99.90;;;;;;5490986;26;20353;-76
2024/04/17 05:49:39;;;;;;;0.30;0.20;;;8.90;99.90;;;;;;5474627;26;20760;-76
2024/04/17 05:52:09;;;;;;;0.30;0.20;;;8.80;99.90;;;;;;5485089;26;20671;-75
2024/04/17 05:54:37;;;;;;;0.30;0.30;;;8.80;99.90;;;;;;5485195;26;20551;-73
2024/04/17 05:57:03;;;;;;;0.30;0.20;;;8.70;99.90;;;;;;5482485;26;20232;-76
2024/04/17 05:59:29;;;;;;;0.30;0.20;;;8.70;99.90;;;;;;5482851;25;20241;-76
2024/04/17 06:01:57;;;;;;;0.30;0.20;;;8.60;99.90;;;;;;5506828;26;20232;-76
2024/04/17 06:04:23;;;;;;;0.50;0.50;;;8.60;99.90;;;;;;5499189;26;20296;-73
2024/04/17 06:06:49;;;;;;;0.30;0.20;;;8.60;99.90;;;;;;5489557;26;20300;-73
2024/04/17 06:09:14;;;;;;;0.30;0.20;;;8.60;99.90;;;;;;5473510;26;21136;-76
2024/04/17 06:11:40;;;;;;;0.30;0.30;;;8.60;99.90;;;;;;5463019;26;21087;-76
2024/04/17 06:14:06;;;;;;;0.30;0.20;;;8.70;99.90;;;;;;5461793;26;20332;-76
2024/04/17 06:16:34;;;;;;;0.43;0.40;;;8.70;99.90;;;;;;5491606;26;20232;-73
2024/04/17 06:19:00;;;;;;;0.30;0.30;;;8.70;99.90;;;;;;5476002;26;20237;-73
2024/04/17 06:21:27;;;;;;;0.30;0.20;;;8.70;99.90;;;;;;5488610;26;20496;-78
2024/04/17 06:23:53;;;;;;;0.30;0.20;;;8.70;99.90;;;;;;5479405;26;20239;-75
2024/04/17 06:26:19;;;;;;;0.30;0.20;;;8.80;99.90;;;;;;5487728;25;20282;-73
2024/04/17 06:28:45;;;;;;;0.30;0.20;;;8.80;99.90;;;;;;5483598;26;20564;-73
2024/04/17 06:31:11;;;;;;;0.30;0.30;;;8.70;99.90;;;;;;5484169;26;20903;-76
2024/04/17 06:33:36;;;;;;;0.30;0.20;;;8.80;99.90;;;;;;5491991;26;20637;-76
2024/04/17 06:36:02;;;;;;;0.50;0.50;;;8.90;99.90;;;;;;5492494;25;20279;-78
2024/04/17 06:38:28;;;;;;;1.13;0.87;;;8.90;99.90;;;;;;5498663;26;20240;-78
2024/04/17 06:40:55;;;;;;;0.30;0.20;;;8.80;99.90;;;;;;5477410;26;20452;-78
2024/04/17 06:43:24;;;;;;;0.30;0.20;;;8.80;99.90;;;;;;5482971;26;20315;-74
2024/04/17 06:45:50;;;;;;;0.30;0.20;;;8.90;99.90;;;;;;5492290;26;20331;-77
2024/04/17 06:48:16;;;;;;;0.30;0.20;;;8.90;99.90;;;;;;5486859;26;20245;-76
2024/04/17 06:50:42;;;;;;;0.30;0.20;;;8.90;99.90;;;;;;5482175;26;20302;-73
2024/04/17 06:53:07;;;;;;;0.40;0.32;;;8.90;99.90;;;;;;5485397;26;20240;-73
2024/04/17 06:55:33;;;;;;;0.30;0.20;;;8.90;99.90;;;;;;5483966;26;20513;-73
2024/04/17 06:57:59;;;;;;;0.30;0.20;;;8.90;99.90;;;;;;5502191;25;20932;-73
2024/04/17 07:00:34;;;;;;;0.30;0.20;;;8.90;99.90;;;;;;5475659;26;20328;-76
2024/04/17 07:03:00;;;;;;;0.40;0.40;;;8.90;99.90;;;;;;5487531;26;20883;-73
2024/04/17 07:05:29;;;;;;;0.30;0.20;;;8.90;99.90;;;;;;5471588;26;20608;-77
2024/04/17 07:07:55;;;;;;;0.30;0.20;;;8.90;99.90;;;;;;5487669;26;20834;-77
2024/04/17 07:10:22;;;;;;;0.30;0.30;;;8.90;99.90;;;;;;5489360;25;20756;-77
2024/04/17 07:12:48;;;;;;;0.30;0.20;;;9.00;99.90;;;;;;5500435;25;20250;-78
2024/04/17 07:15:13;;;;;;;0.30;0.20;;;8.90;99.90;;;;;;5500283;26;20274;-78
2024/04/17 07:17:39;;;;;;;0.30;0.20;;;9.00;99.90;;;;;;5489768;25;20632;-75
2024/04/17 07:20:06;;;;;;;0.30;0.20;;;8.90;99.90;;;;;;5494920;26;20239;-78
2024/04/17 07:22:32;;;;;;;0.30;0.20;;;8.90;99.90;;;;;;5496033;26;20223;-72
2024/04/17 07:24:57;;;;;;;0.30;0.20;;;8.90;99.90;;;;;;5484614;26;20318;-76
2024/04/17 07:27:23;;;;;;;0.30;0.20;;;9.00;99.90;;;;;;5495502;25;20457;-76
2024/04/17 07:29:48;;;;;;;0.30;0.20;;;9.00;99.90;;;;;;5480508;25;20702;-75
2024/04/17 07:32:15;;;;;;;0.60;0.60;;;9.10;99.90;;;;;;5494807;25;20266;-73
2024/04/17 07:34:41;;;;;;;0.30;0.30;;;9.10;99.90;;;;;;5503464;25;20236;-73
2024/04/17 07:37:07;;;;;;;0.30;0.20;;;9.10;99.90;;;;;;5494866;26;20814;-76
2024/04/17 07:39:35;;;;;;;0.95;0.95;;;9.20;99.90;;;;;;5496980;25;20859;-73
2024/04/17 07:42:00;;;;;;;0.65;0.65;;;9.30;99.90;;;;;;5489842;25;20681;-73
2024/04/17 07:44:26;;;;;;;0.30;0.20;;;9.40;99.90;;;;;;5475852;25;20705;-73
2024/04/17 07:46:51;;;;;;;1.13;1.13;;;9.50;99.90;;;;;;5463460;25;20681;-76
2024/04/17 07:49:18;;;;;;;0.30;0.20;;;9.50;99.90;;;;;;5469392;25;20336;-73
2024/04/17 07:51:44;;;;;;;0.30;0.20;;;9.70;99.90;;;;;;5473765;25;20236;-79
2024/04/17 07:54:10;;;;;;;0.30;0.20;;;9.80;99.90;;;;;;5491608;25;20261;-76
2024/04/17 07:56:35;;;;;;;0.30;0.20;;;9.80;99.90;;;;;;5487501;25;20228;-76
2024/04/17 07:59:01;;;;;;;0.50;0.50;;;10.00;99.90;;;;;;5488245;25;20373;-73
2024/04/17 08:01:27;;;;;;;0.30;0.20;;;10.20;99.90;;;;;;5499789;25;20270;-76
2024/04/17 08:03:53;;;;;;;0.30;0.20;;;10.30;99.90;;;;;;5480061;25;20255;-76
2024/04/17 08:06:20;;;;;;;0.30;0.20;;;10.40;99.90;;;;;;5467351;25;20244;-74
2024/04/17 08:08:46;;;;;;;0.30;0.20;;;10.50;99.90;;;;;;5469803;25;21391;-73
2024/04/17 08:11:12;;;;;;;0.30;0.20;;;10.60;99.90;;;;;;5473169;25;20572;-77
2024/04/17 08:13:39;;;;;;;0.30;0.20;;;10.70;99.90;;;;;;5474654;25;20646;-76
2024/04/17 08:16:05;;;;;;;0.30;0.20;;;10.80;99.90;;;;;;5492510;25;20897;-76
2024/04/17 08:18:30;;;;;;;0.30;0.20;;;10.80;99.90;;;;;;5468183;25;20335;-77
2024/04/17 08:20:56;;;;;;;0.67;0.67;;;10.90;99.90;;;;;;5464959;25;20506;-77
2024/04/17 08:23:22;;;;;;;0.30;0.20;;;11.00;99.90;;;;;;5483405;26;20595;-76
2024/04/17 08:25:48;;;;;;;2.10;1.90;;;11.00;99.90;;;;;;5460068;26;20497;-75
2024/04/17 08:28:13;;;;;;;0.30;0.20;;;11.10;99.90;;;;;;5464111;26;20820;-77
2024/04/17 08:30:39;;;;;;;0.30;0.20;;;11.20;99.90;;;;;;5464945;26;20271;-77
2024/04/17 08:33:04;;;;;;;0.30;0.20;;;11.30;99.90;;;;;;5471448;26;20266;-76
2024/04/17 08:35:30;;;;;;;0.30;0.20;;;11.30;99.90;;;;;;5477267;26;20232;-77
2024/04/17 08:37:56;;;;;;;0.30;0.27;;;11.40;99.90;;;;;;5481830;26;20274;-76
2024/04/17 08:40:22;;;;;;;0.30;0.20;;;11.40;99.90;;;;;;5481788;25;20633;-76
2024/04/17 08:42:51;;;;;;;0.30;0.20;;;11.50;99.90;;;;;;5486516;26;20425;-77
2024/04/17 08:45:33;;;;;;;0.30;0.20;;;11.40;99.90;;;;;;5480171;26;20228;-77
2024/04/17 08:48:04;;;;;;;0.30;0.20;;;11.50;99.90;;;;;;5472922;26;20353;-74
2024/04/17 08:50:35;;;;;;;0.40;0.20;;;11.50;99.90;;;;;;5468281;26;20496;-77
2024/04/17 08:53:02;;;;;;;0.30;0.20;;;11.50;99.90;;;;;;5475197;26;20243;-77
2024/04/17 08:55:29;;;;;;;0.30;0.30;;;11.50;99.90;;;;;;5474402;26;20654;-77
2024/04/17 08:57:55;;;;;;;0.30;0.20;;;11.50;99.90;;;;;;5480995;25;20851;-73
2024/04/17 09:00:25;;;;;;;0.30;0.20;;;11.50;99.90;;;;;;5494046;26;20243;-77
2024/04/17 09:02:56;;;;;;;0.30;0.20;;;11.50;99.90;;;;;;5477669;26;20240;-74
2024/04/17 09:05:24;;;;;;;0.77;0.77;;;11.50;99.90;;;;;;5481723;26;20490;-77
2024/04/17 09:07:51;;;;;;;0.30;0.20;;;11.50;99.90;;;;;;5487701;26;20251;-73
2024/04/17 09:10:18;;;;;;;0.40;0.40;;;11.60;99.90;;;;;;5488764;26;20296;-74
2024/04/17 09:12:45;;;;;;;0.30;0.20;;;11.60;99.90;;;;;;5486643;26;20968;-77
2024/04/17 09:15:15;;;;;;;0.88;0.88;;;11.60;99.90;;;;;;5484380;26;20244;-74
2024/04/17 09:17:41;;;;;;;0.30;0.20;;;11.60;99.90;;;;;;5491057;26;20276;-77
2024/04/17 09:20:07;;;;;;;0.50;0.50;;;11.70;99.90;;;;;;5487537;26;20636;-74
2024/04/17 09:22:34;;;;;;;0.30;0.20;;;11.80;99.90;;;;;;5480371;25;20262;-77
2024/04/17 09:25:01;;;;;;;0.30;0.20;;;11.80;99.90;;;;;;5482411;26;20782;-77
2024/04/17 09:27:26;;;;;;;0.40;0.40;;;11.90;99.90;;;;;;5491196;25;20236;-74
2024/04/17 09:29:52;;;;;;;0.30;0.20;;;11.90;99.90;;;;;;5478095;26;20597;-74
2024/04/17 09:32:18;;;;;;;0.40;0.40;;;12.00;99.90;;;;;;5489235;26;20761;-74
2024/04/17 09:34:44;;;;;;;0.50;0.50;;;12.00;99.90;;;;;;5488544;25;20274;-74
2024/04/17 09:37:11;;;;;;;0.30;0.30;;;12.00;99.90;;;;;;5484877;26;20224;-74
2024/04/17 09:39:37;;;;;;;0.40;0.38;;;12.10;99.90;;;;;;5492372;26;20269;-77
2024/04/17 09:42:07;;;;;;;0.30;0.20;;;12.20;99.90;;;;;;5488664;26;20239;-77
2024/04/17 09:44:37;;;;;;;1.30;0.90;;;12.20;99.90;;;;;;5502487;26;20235;-77
2024/04/17 09:47:08;;;;;;;0.30;0.20;;;12.30;99.90;;;;;;5497816;26;20223;-77
2024/04/17 09:49:34;;;;;;;0.30;0.20;;;12.30;99.90;;;;;;5490878;26;21334;-76
2024/04/17 09:52:04;;;;;;;0.35;0.35;;;12.30;99.90;;;;;;5490443;25;20508;-77
2024/04/17 09:54:31;;;;;;;0.30;0.20;;;12.40;99.90;;;;;;5489658;26;20262;-74
2024/04/17 09:56:57;;;;;;;0.30;0.20;;;12.40;99.90;;;;;;5491373;26;20516;-74
2024/04/17 09:59:23;;;;;;;0.30;0.20;;;12.50;99.90;;;;;;5489646;26;20248;-77
2024/04/17 10:01:50;;;;;;;0.73;0.73;;;12.60;99.90;;;;;;5489547;26;20285;-74
2024/04/17 10:04:17;;;;;;;0.30;0.20;;;12.60;99.90;;;;;;5483413;25;20439;-77
2024/04/17 10:06:44;;;;;;;0.30;0.20;;;12.80;99.90;;;;;;5486760;25;20732;-74
2024/04/17 10:09:13;;;;;;;0.30;0.20;;;12.90;99.90;;;;;;5495127;26;20519;-74
2024/04/17 10:11:39;;;;;;;0.30;0.20;;;13.10;99.90;;;;;;5484975;26;20449;-77
2024/04/17 10:14:12;;;;;;;0.30;0.20;;;13.20;99.90;;;;;;5475676;26;20466;-74
2024/04/17 10:16:39;;;;;;;0.30;0.20;;;13.20;99.90;;;;;;5478568;26;20730;-77
2024/04/17 10:19:05;;;;;;;0.77;0.50;;;13.20;99.90;;;;;;5491356;25;20567;-73
2024/04/17 10:21:35;;;;;;;0.30;0.20;;;13.20;99.90;;;;;;5482159;26;20599;-73
2024/04/17 10:24:01;;;;;;;0.30;0.20;;;13.20;99.90;;;;;;5488241;26;21007;-77
2024/04/17 10:26:48;;;;;;;0.47;0.37;;;13.20;99.90;;;;;;5478665;26;20472;-77
2024/04/17 10:29:17;;;;;;;0.40;0.33;;;13.20;99.90;;;;;;5479507;26;20547;-77
2024/04/17 10:32:23;;;;;;;0.60;0.60;;;13.30;99.90;;;;;;5476711;26;20945;-77
2024/04/17 10:34:51;;;;;;;0.37;0.30;;;13.30;99.90;;;;;;5470001;26;20464;-78
2024/04/17 10:37:18;;;;;;;0.30;0.20;;;13.30;99.90;;;;;;5486967;26;20531;-79
2024/04/17 10:39:46;;;;;;;0.30;0.20;;;13.30;99.90;;;;;;5483289;26;20795;-77
2024/04/17 10:42:17;;;;;;;0.30;0.20;;;13.30;99.90;;;;;;5481764;26;20529;-73
2024/04/17 10:44:50;;;;;;;0.30;0.30;;;13.40;99.90;;;;;;5492922;26;20503;-77
2024/04/17 10:47:26;;;;;;;0.30;0.20;;;13.50;99.90;;;;;;5482328;26;20718;-78
2024/04/17 10:50:00;;;;;;;0.30;0.20;;;13.60;99.90;;;;;;5478178;26;20441;-78
2024/04/17 10:52:27;;;;;;;0.30;0.20;;;13.70;99.90;;;;;;5476905;26;20504;-77
2024/04/17 10:54:57;;;;;;;0.30;0.20;;;13.70;99.90;;;;;;5486755;25;20497;-74
2024/04/17 10:57:24;;;;;;;0.30;0.20;;;13.80;99.90;;;;;;5482262;26;20461;-77
2024/04/17 10:59:50;;;;;;;0.30;0.20;;;13.90;99.90;;;;;;5479344;26;20509;-73
2024/04/17 11:02:16;;;;;;;0.30;0.20;;;13.90;99.90;;;;;;5476474;26;20548;-74
2024/04/17 11:04:43;;;;;;;0.40;0.37;;;14.00;99.90;;;;;;5484075;25;20472;-76
2024/04/17 11:07:13;;;;;;;0.30;0.20;;;14.00;99.90;;;;;;5485292;25;20452;-74
2024/04/17 11:09:43;;;;;;;0.30;0.20;;;14.10;99.90;;;;;;5482327;25;20813;-77
2024/04/17 11:12:16;;;;;;;0.40;0.20;;;14.10;99.90;;;;;;5485523;26;20473;-77
2024/04/17 11:14:42;;;;;;;0.30;0.20;;;14.10;99.90;;;;;;5482601;25;20473;-74
2024/04/17 11:17:09;;;;;;;0.30;0.20;;;14.10;99.90;;;;;;5487976;25;21039;-77
2024/04/17 11:19:35;;;;;;;0.30;0.30;;;14.20;99.90;;;;;;5494343;26;20907;-74
2024/04/17 11:22:07;;;;;;;0.30;0.20;;;14.30;99.90;;;;;;5480683;25;20579;-73
2024/04/17 11:24:33;;;;;;;0.30;0.20;;;14.30;99.90;;;;;;5479067;25;20472;-73
2024/04/17 11:26:59;;;;;;;0.30;0.20;;;14.30;99.90;;;;;;5473685;26;21089;-73
2024/04/17 11:29:25;;;;;;;0.30;0.20;;;14.40;99.90;;;;;;5496609;26;20787;-78
2024/04/17 11:31:51;;;;;;;0.30;0.30;;;14.40;99.90;;;;;;5486445;25;20259;-74
2024/04/17 11:34:20;;;;;;;0.30;0.20;;;14.40;99.90;;;;;;5484760;25;21321;-74
2024/04/17 11:36:49;;;;;;;0.30;0.20;;;14.30;99.90;;;;;;5489024;25;20342;-73
2024/04/17 11:39:19;;;;;;;0.30;0.30;;;14.40;99.90;;;;;;5490675;26;20445;-77
2024/04/17 11:41:49;;;;;;;0.30;0.20;;;14.40;99.90;;;;;;5490999;26;20441;-73
2024/04/17 11:44:14;;;;;;;0.30;0.30;;;14.30;99.90;;;;;;5493629;26;20868;-74
2024/04/17 11:46:40;;;;;;;0.30;0.20;;;14.30;99.90;;;;;;5493021;26;20506;-77
2024/04/17 11:49:08;;;;;;;0.57;0.57;;;14.40;99.90;;;;;;5484389;25;21120;-77
2024/04/17 11:51:35;;;;;;;0.30;0.20;;;14.40;99.90;;;;;;5484135;25;20470;-77
2024/04/17 11:54:03;;;;;;;2.03;1.60;;;14.40;99.90;;;;;;5487327;26;20520;-76
2024/04/17 11:56:29;;;;;;;0.33;0.30;;;14.30;99.90;;;;;;5495585;26;21158;-77
2024/04/17 11:58:55;;;;;;;0.30;0.30;;;14.20;99.90;;;;;;5501025;26;20480;-76
2024/04/17 12:01:20;;;;;;;3.60;1.63;;;14.10;99.90;;;;;;5480944;26;20585;-73
2024/04/17 12:03:46;;;;;;;0.30;0.30;;;14.00;99.90;;;;;;5493030;26;20507;-76
2024/04/17 12:06:12;;;;;;;0.33;0.30;;;13.90;99.90;;;;;;5477436;25;20251;-76
2024/04/17 12:08:38;;;;;;;0.30;0.20;;;13.70;99.90;;;;;;5489346;26;20339;-76
2024/04/17 12:11:03;;;;;;;0.30;0.30;;;13.70;99.90;;;;;;5488430;26;20882;-73
2024/04/17 12:13:29;;;;;;;0.30;0.30;;;13.60;99.90;;;;;;5490396;26;20513;-77
2024/04/17 12:15:55;;;;;;;0.40;0.37;;;13.60;99.90;;;;;;5473620;26;20247;-73
2024/04/17 12:18:20;;;;;;;0.30;0.20;;;13.50;99.90;;;;;;5490935;26;20235;-73
2024/04/17 12:20:46;;;;;;;0.30;0.20;;;13.50;99.90;;;;;;5490889;26;20807;-76
2024/04/17 12:23:18;;;;;;;0.40;0.40;;;13.50;99.90;;;;;;5482089;26;20235;-73
2024/04/17 12:28:32;;;;;;;0.30;0.30;;;13.50;99.90;;;;;;5478543;26;20939;-73
2024/04/17 12:30:58;;;;;;;0.30;0.20;;;13.50;99.90;;;;;;5480714;26;21020;-74
2024/04/17 12:33:27;;;;;;;0.30;0.20;;;13.50;99.90;;;;;;5460750;26;21684;-73
2024/04/17 12:35:53;;;;;;;0.40;0.40;;;13.50;99.90;;;;;;5466252;25;20492;-73
2024/04/17 12:38:19;;;;;;;0.30;0.30;;;13.50;99.90;;;;;;5471778;25;21037;-74
2024/04/17 12:40:44;;;;;;;0.30;0.20;;;13.50;99.90;;;;;;5473419;26;20448;-76
2024/04/17 12:43:10;;;;;;;0.40;0.40;;;13.40;99.90;;;;;;5488663;26;20281;-77
2024/04/17 12:45:36;;;;;;;0.40;0.40;;;13.40;99.90;;;;;;5479885;26;20532;-73
2024/04/17 12:48:01;;;;;;;0.40;0.40;;;13.40;99.90;;;;;;5475699;25;20927;-76
2024/04/17 12:50:27;;;;;;;0.30;0.20;;;13.40;99.90;;;;;;5482076;26;20285;-74
2024/04/17 12:52:54;;;;;;;0.30;0.20;;;13.50;99.90;;;;;;5488187;26;20278;-76